Thunder radar more information blitzortung!


Löydät sääaseman tiedot myös:

European Weather Network

Finland Weather Exchange

Weather Underground

AWEKAS



Weather Underground säähistoriasivu

Päivittäin yhteenveto Marraskuu 6, 2017 Yksiköt:  Englantilaiset    Metriset   Molemmat
« Edellinen Päivä
Seuraava Päivä »
Päivittäin Viikoittain Kuukausittain Vuosittain Mukautettu
  Korkea: Matala: Keskiarvo:
Lämpötila: TemperatureC °F 0.5 °F 5.4 °F
Kastepiste: DewpointC °F -0.9 °F 4.2 °F
Kosteus: Humidity % 88 % 91 %
Tuulen nopeus: WindSpeedKMH mph 0.0 mph 4.9 mph
Tuulenpuuska: WindSpeedGustKMH mph - -
Tuuli:- - SSW
Ilmanpaine: PressurehPa in 999.5 in -
Sade: 0.0 in    
Historical Graphs
 
 
Taulukkotiedot Marraskuu 6, 2017
Aika Lämpötila Kastepiste Ilmanpaine Tuuli Tuulen nopeus Tuulenpuuska Kosteus Sademäärä (tunneittain)
TemperatureC °F DewpointC °F PressurehPa in Calm     Humidity % HourlyPrecipMM in
00:00 7.0 °F 6.6 °F 1000.2 in South 4.8 mph 12.9 mph 97 % 0.0 in
00:15 7.1 °F 6.6 °F 999.9 in SSW 3.2 mph 9.7 mph 97 % 0.0 in
00:30 7.1 °F 6.7 °F 999.9 in South 3.2 mph 11.3 mph 97 % 0.0 in
00:45 7.3 °F 6.8 °F 1000.2 in South 6.4 mph 17.7 mph 97 % 0.0 in
01:00 7.4 °F 6.9 °F 1000.2 in South 4.8 mph 24.1 mph 97 % 0.0 in
01:15 7.4 °F 7.0 °F 1000.2 in South 4.8 mph 20.9 mph 97 % 0.0 in
01:30 7.6 °F 7.1 °F 999.9 in South 4.8 mph 16.1 mph 97 % 0.0 in
01:45 7.6 °F 7.3 °F 1000.2 in South 3.2 mph 12.9 mph 98 % 0.0 in
02:00 7.6 °F 7.3 °F 999.9 in South 3.2 mph 11.3 mph 98 % 0.0 in
02:15 7.7 °F 7.4 °F 999.9 in SSW 3.2 mph 11.3 mph 98 % 0.0 in
02:30 7.8 °F 7.5 °F 999.9 in SSW 4.8 mph 11.3 mph 98 % 0.0 in
02:45 7.9 °F 7.6 °F 999.9 in SSW 4.8 mph 11.3 mph 98 % 0.0 in
03:00 8.1 °F 7.8 °F 999.9 in SSW 6.4 mph 14.5 mph 98 % 0.0 in
03:15 8.3 °F 8.0 °F 1000.2 in SSW 8.0 mph 14.5 mph 98 % 0.0 in
03:30 8.3 °F 8.0 °F 999.9 in SSW 6.4 mph 24.1 mph 98 % 0.0 in
03:45 8.3 °F 8.0 °F 999.9 in SSW 4.8 mph 16.1 mph 98 % 0.0 in
04:00 8.3 °F 7.9 °F 999.5 in SSW 6.4 mph 14.5 mph 97 % 0.0 in
04:15 8.4 °F 8.0 °F 999.5 in South 4.8 mph 14.5 mph 97 % 0.0 in
04:30 8.4 °F 7.8 °F 999.9 in SSW 4.8 mph 17.7 mph 96 % 0.0 in
04:45 8.4 °F 7.8 °F 999.9 in SSW 4.8 mph 16.1 mph 96 % 0.0 in
05:00 8.5 °F 7.7 °F 999.5 in SSW 8.0 mph 19.3 mph 95 % 0.0 in
05:30 8.4 °F 7.2 °F 999.9 in SSW 11.3 mph 24.1 mph 92 % 0.0 in
05:45 8.3 °F 6.9 °F 999.9 in SSW 9.7 mph 32.2 mph 91 % 0.0 in
06:00 8.2 °F 6.8 °F 999.5 in SSW 9.7 mph 24.1 mph 91 % 0.0 in
06:15 8.1 °F 6.9 °F 999.5 in SSW 8.0 mph 16.1 mph 92 % 0.0 in
06:30 8.1 °F 6.7 °F 999.9 in SSW 8.0 mph 20.9 mph 91 % 0.0 in
06:45 8.1 °F 6.7 °F 999.9 in SSW 8.0 mph 19.3 mph 91 % 0.0 in
07:00 8.0 °F 6.6 °F 999.9 in SSW 8.0 mph 20.9 mph 91 % 0.0 in
07:15 7.9 °F 6.6 °F 999.9 in SSW 9.7 mph 27.4 mph 91 % 0.0 in
07:30 7.9 °F 6.5 °F 999.9 in SSW 8.0 mph 16.1 mph 91 % 0.0 in
07:45 7.8 °F 6.2 °F 999.9 in SSW 8.0 mph 20.9 mph 90 % 0.0 in
08:00 7.7 °F 6.2 °F 1000.2 in SSW 9.7 mph 22.5 mph 90 % 0.0 in
08:15 7.7 °F 6.3 °F 1000.2 in SSW 9.7 mph 20.9 mph 91 % 0.0 in
08:30 7.6 °F 6.0 °F 1000.2 in SSW 9.7 mph 20.9 mph 90 % 0.0 in
08:45 7.5 °F 6.0 °F 1000.6 in SSW 9.7 mph 22.5 mph 90 % 0.0 in
09:00 7.4 °F 5.7 °F 1000.6 in SSW 11.3 mph 20.9 mph 89 % 0.0 in
09:15 7.3 °F 5.6 °F 1000.6 in SSW 9.7 mph 19.3 mph 89 % 0.0 in
09:30 7.2 °F 5.5 °F 1000.9 in SSW 8.0 mph 20.9 mph 89 % 0.0 in
09:45 7.2 °F 5.3 °F 1001.2 in SSW 11.3 mph 30.6 mph 88 % 0.0 in
10:00 7.1 °F 5.2 °F 1001.2 in SSW 9.7 mph 20.9 mph 88 % 0.0 in
10:15 6.9 °F 5.1 °F 1001.2 in SSW 9.7 mph 19.3 mph 88 % 0.0 in
10:30 6.8 °F 5.0 °F 1001.2 in SSW 9.7 mph 27.4 mph 88 % 0.0 in
10:45 6.8 °F 4.9 °F 1001.6 in SSW 8.0 mph 22.5 mph 88 % 0.0 in
11:00 6.7 °F 5.0 °F 1001.9 in SSW 8.0 mph 22.5 mph 89 % 0.0 in
11:15 6.4 °F 4.8 °F 1001.9 in SSW 8.0 mph 22.5 mph 89 % 0.0 in
11:30 6.3 °F 4.7 °F 1002.3 in SSW 6.4 mph 24.1 mph 89 % 0.0 in
11:45 6.1 °F 4.5 °F 1002.3 in SSW 8.0 mph 17.7 mph 90 % 0.0 in
12:00 5.9 °F 4.3 °F 1002.3 in SSW 9.7 mph 25.7 mph 89 % 0.0 in
12:15 5.8 °F 4.2 °F 1002.6 in SSW 9.7 mph 24.1 mph 89 % 0.0 in
12:30 5.6 °F 4.4 °F 1002.9 in SSW 8.0 mph 20.9 mph 92 % 0.0 in
12:45 5.5 °F 4.5 °F 1003.3 in SSW 6.4 mph 16.1 mph 93 % 0.0 in
13:00 5.3 °F 4.4 °F 1003.3 in SSW 6.4 mph 12.9 mph 94 % 0.0 in
13:15 5.1 °F 4.2 °F 1003.6 in SW 4.8 mph 12.9 mph 94 % 0.0 in
13:30 4.9 °F 3.9 °F 1003.9 in SW 4.8 mph 17.7 mph 93 % 0.0 in
13:45 4.8 °F 3.6 °F 1004.3 in West 1.6 mph 12.9 mph 92 % 0.0 in
14:00 4.8 °F 3.4 °F 1004.6 in WSW 4.8 mph 9.7 mph 91 % 0.0 in
14:15 4.8 °F 3.5 °F 1004.6 in SSW 4.8 mph 16.1 mph 91 % 0.0 in
14:30 5.0 °F 3.7 °F 1005.0 in SSW 1.6 mph 9.7 mph 91 % 0.0 in
14:45 5.0 °F 3.5 °F 1005.3 in SSW 3.2 mph 9.7 mph 90 % 0.0 in
15:00 4.9 °F 3.5 °F 1005.3 in SSW 3.2 mph 9.7 mph 91 % 0.0 in
15:15 4.8 °F 3.3 °F 1005.6 in SW 3.2 mph 9.7 mph 90 % 0.0 in
15:30 4.6 °F 3.3 °F 1005.6 in WSW 3.2 mph 12.9 mph 91 % 0.0 in
15:45 4.5 °F 3.3 °F 1006.3 in SW 3.2 mph 12.9 mph 92 % 0.0 in
16:00 4.7 °F 3.3 °F 1006.3 in SW 3.2 mph 9.7 mph 91 % 0.0 in
16:15 4.4 °F 3.1 °F 1006.7 in SSW 3.2 mph 11.3 mph 91 % 0.0 in
16:30 4.1 °F 2.8 °F 1007.3 in SW 1.6 mph 8.0 mph 91 % 0.0 in
16:45 3.8 °F 2.6 °F 1007.3 in Calm   11.3 mph 92 % 0.0 in
17:00 3.6 °F 2.4 °F 1007.7 in SW 1.6 mph 6.4 mph 92 % 0.0 in
17:15 3.3 °F 2.2 °F 1007.7 in SW 1.6 mph 8.0 mph 92 % 0.0 in
17:30 3.1 °F 2.0 °F 1008.0 in WSW 1.6 mph 4.8 mph 93 % 0.0 in
17:45 2.8 °F 1.8 °F 1008.4 in WSW 1.6 mph 6.4 mph 93 % 0.0 in
18:00 2.7 °F 1.8 °F 1008.7 in WSW 1.6 mph 6.4 mph 94 % 0.0 in
18:15 2.6 °F 1.7 °F 1008.7 in SW 3.2 mph 8.0 mph 94 % 0.0 in
18:30 2.5 °F 1.6 °F 1009.0 in WSW 1.6 mph 8.0 mph 94 % 0.0 in
18:45 2.5 °F 1.6 °F 1009.4 in SW 1.6 mph 4.8 mph 94 % 0.0 in
19:00 2.4 °F 1.6 °F 1009.7 in SW 1.6 mph 8.0 mph 94 % 0.0 in
19:15 2.5 °F 1.6 °F 1009.7 in West 1.6 mph 9.7 mph 94 % 0.0 in
19:30 2.6 °F 1.7 °F 1009.7 in WSW 3.2 mph 12.9 mph 94 % 0.0 in
19:45 2.6 °F 1.7 °F 1010.0 in WSW 1.6 mph 8.0 mph 94 % 0.0 in
20:00 2.4 °F 1.4 °F 1010.4 in SW 1.6 mph 8.0 mph 93 % 0.0 in
20:30 2.2 °F 1.0 °F 1010.7 in Calm   6.4 mph 92 % 0.0 in
20:45 2.1 °F 0.7 °F 1010.7 in South 1.6 mph 8.0 mph 91 % 0.0 in
21:00 1.8 °F 0.4 °F 1011.1 in WSW 1.6 mph 6.4 mph 90 % 0.0 in
21:15 1.7 °F 0.1 °F 1011.4 in Calm   4.8 mph 89 % 0.0 in
21:30 1.6 °F -0.1 °F 1011.4 in WSW 1.6 mph 6.4 mph 89 % 0.0 in
21:45 1.5 °F -0.1 °F 1011.7 in SSW 1.6 mph 6.4 mph 89 % 0.0 in
22:00 1.3 °F -0.3 °F 1012.1 in Calm   4.8 mph 89 % 0.0 in
22:15 1.1 °F -0.6 °F 1012.1 in Calm   3.2 mph 89 % 0.0 in
22:30 0.8 °F -0.8 °F 1012.1 in Calm   3.2 mph 89 % 0.0 in
22:45 0.6 °F -0.9 °F 1012.4 in South 3.2 mph 6.4 mph 90 % 0.0 in
23:00 0.5 °F -0.8 °F 1012.4 in SW 1.6 mph 8.0 mph 91 % 0.0 in
23:15 0.7 °F -0.6 °F 1012.4 in South 3.2 mph 9.7 mph 91 % 0.0 in
23:30 0.8 °F -0.5 °F 1012.8 in SSW 1.6 mph 4.8 mph 91 % 0.0 in
23:45 1.0 °F -0.3 °F 1012.8 in SW 1.6 mph 6.4 mph 91 % 0.0 in
Esan sääasema
Terveisin Weather Underground - 2.75 mb

Alkuperäinen skripti  Jim McMurry - jmcmurry@mwt.net Sovitettu myös templatelle  Wim van der Kuil - Leuven-Template.eu

Laitteet joita käytämme:

Sääasema
Davis VP2

Sääasemaohjelma
Cumulus

Sääaseman tietokone
Asus EeePC

Palveluntarjoaja
Suncomet

Davis VP2

Cumulus

Asus EeePC

Suncomet